• Join FlightAware (Why Join?)
  • Login
  • US Flag 
10:34AM EDT


 

Airport Tracker/Info


-or-


 

Live Flight TrackerFlight Track Log ✈ SWA652 ✈ 21-Jun-2013 ✈ KCLE - KBWI

Flight Track Log - Related Links

Times and Time Zones

All times are in EDT time to prevent confusion due to time zone crossing. See the SWA652 flight status page for this flight to view local times or setup timezone preferences in your user account.

Time Position Orientation Groundspeed Altitude Reporting Facility
EDT Latitude Longitude Course Direction KTS MPH feet Rate Location/Type
08:14PM 41.3272 -81.8772 181° South 217 250 4,600  Level Cleveland Center
08:14PM 41.3025 -81.8656 160° South 272 313 5,400 2,640 Climbing Cleveland Center
08:15PM 41.2822 -81.8100 116° Southeast 285 328 7,300 2,700 Climbing Cleveland Center
08:16PM 41.2400 -81.6489 109° East 321 369 10,900 2,700 Climbing Cleveland Center
08:17PM 41.2036 -81.5214 111° Southeast 350 403 14,100 2,940 Climbing Cleveland Center
08:18PM 41.1250 -81.4514 146° Southeast 350 403 16,800 2,760 Climbing Cleveland Center
08:19PM 41.0211 -81.3922 157° South 367 422 19,700 2,520 Climbing Cleveland Center
08:20PM 40.9131 -81.3278 156° South 410 472 21,900 2,400 Climbing Cleveland Center
08:21PM 40.8261 -81.2197 137° Southeast 434 499 24,600 2,400 Climbing Cleveland Center
08:22PM 40.7519 -81.0792 125° Southeast 445 512 26,800 1,200 Climbing Cleveland Center
08:23PM 40.6733 -80.9253 124° Southeast 462 532 27,000 60 Climbing Cleveland Center
08:24PM 40.5986 -80.7856 125° Southeast 467 537 27,000  Level Cleveland Center
08:25PM 40.5236 -80.6486 126° Southeast 472 543 27,000  Level Cleveland Center
08:26PM 40.4508 -80.5150 126° Southeast 466 536 27,000  Level Cleveland Center
08:27PM 40.3797 -80.3814 125° Southeast 460 529 27,000  Level Cleveland Center
08:28PM 40.3064 -80.2536 127° Southeast 449 517 27,000  Level Cleveland Center
08:29PM 40.2331 -80.1208 126° Southeast 449 517 27,000  Level Cleveland Center
08:30PM 40.1678 -80.0044 126° Southeast 444 511 27,000  Level Cleveland Center
08:32PM 40.0492 -79.7817 125° Southeast 448 516 27,000  Level Washington Center
08:33PM 39.9767 -79.6528 126° Southeast 448 516 27,000  Level Washington Center
08:34PM 39.8961 -79.5075 126° Southeast 448 516 27,000  Level Washington Center
08:35PM 39.8231 -79.3767 126° Southeast 448 516 27,000 -480 Level Washington Center
08:36PM 39.7519 -79.2486 126° Southeast 443 510 26,100 -960 Descending Washington Center
08:37PM 39.6767 -79.1153 126° Southeast 448 516 25,100 -600 Descending Washington Center
08:38PM 39.6353 -78.9625 109° East 442 509 25,000 -60 Descending Washington Center
08:39PM 39.6039 -78.8183 106° East 448 516 25,000  Level Washington Center
08:40PM 39.5667 -78.6497 106° East 454 522 25,000 -1,200 Level Washington Center
08:41PM 39.5308 -78.4919 106° East 446 513 22,600 -2,880 Descending Washington Center
08:42PM 39.4989 -78.3456 106° East 435 501 19,300 -3,000 Descending Washington Center
08:43PM 39.4664 -78.2100 107° East 419 482 16,700 -2,220 Descending Washington Center
08:44PM 39.4361 -78.0744 106° East 399 459 15,000 -960 Descending Washington Center
08:45PM 39.4261 -77.9369 95° East 385 443 14,800 -660 Descending Washington Center
08:46PM 39.4308 -77.8003 87° East 373 429 13,800 -1,020 Descending Washington Center
08:47PM 39.4375 -77.6661 86° East 373 429 12,800 -1,020 Descending Washington Center
08:48PM 39.4397 -77.5344 89° East 368 423 11,800 -900 Descending Washington Center
08:49PM 39.4436 -77.4083 88° East 363 418 11,000 -540 Descending Washington Center
08:49PM 39.4500 -77.3333 84° East 309 356 11,000 -120 Level Potomac TRACON
08:51PM 39.4667 -77.2167 79° East 299 344 10,800 -660 Descending Potomac TRACON
08:52PM 39.4833 -77.1167 78° East 301 346 9,700 -1,200 Descending Potomac TRACON
08:52PM 39.4667 -77.0167 102° East 297 342 8,600 -1,380 Descending Potomac TRACON
08:53PM 39.4500 -76.9167 102° East 297 342 7,100 -1,440 Descending Potomac TRACON
08:54PM 39.3833 -76.8500 142° Southeast 282 325 5,700 -1,320 Descending Potomac TRACON
08:55PM 39.3167 -76.9000 210° Southwest 273 314 4,500 -1,140 Descending Potomac TRACON
08:56PM 39.2667 -76.9333 207° Southwest 245 282 3,500 -720 Descending Potomac TRACON
08:57PM 39.2000 -76.9167 169° South 212 244 3,100 -300 Descending Potomac TRACON
08:58PM 39.1833 -76.8667 113° Southeast 184 212 2,900 -660 Descending Potomac TRACON
09:00PM 39.1833 -76.8000 90° East 163 188 1,800 -960 Descending Potomac TRACON
09:01PM 39.1833 -76.7500 90° East 132 152 1,000 -720 Descending Potomac TRACON
09:02PM 39.1833 -76.7000 90° East 131 151 400 -600 Descending Potomac TRACON
09:04PM 39.1667 -76.6667 150° Southeast  Level FlightAware Approximate
09:11PM 39.1754 -76.6683 150° Southeast  Level Estimated
09:12PM 39.1754 -76.6683 150° Southeast  Level Estimated
09:13PM 39.1754 -76.6683 150° Southeast  Level Estimated